createdAt,value
2023-03-08T00:01:55.038Z,3.07
2023-03-08T00:04:57.752Z,3.11
2023-03-08T00:08:00.494Z,3.12
2023-03-08T00:11:10.981Z,3.19
2023-03-08T00:14:13.645Z,2.98
2023-03-08T00:17:17.142Z,2.92
2023-03-08T00:20:19.779Z,2.87
2023-03-08T00:23:22.372Z,2.95
2023-03-08T00:26:24.950Z,2.78
2023-03-08T00:29:27.520Z,3.00
2023-03-08T00:32:33.106Z,2.93
2023-03-08T00:35:35.729Z,3.08
2023-03-08T00:38:38.296Z,2.89
2023-03-08T00:41:40.968Z,2.89
2023-03-08T00:44:43.504Z,2.89
2023-03-08T00:47:47.454Z,3.03
2023-03-08T00:50:50.092Z,3.00
2023-03-08T00:53:52.732Z,3.04
2023-03-08T00:56:55.537Z,3.12
2023-03-08T01:00:01.335Z,2.90
2023-03-08T01:03:04.627Z,3.00
2023-03-08T01:06:10.240Z,3.02
2023-03-08T01:09:13.003Z,3.12
2023-03-08T01:12:15.533Z,3.07
2023-03-08T01:15:18.179Z,3.05
2023-03-08T01:18:20.783Z,3.03
2023-03-08T01:21:24.045Z,3.01
2023-03-08T01:24:26.775Z,3.09
2023-03-08T01:27:32.004Z,3.05
2023-03-08T01:30:35.133Z,2.99
2023-03-08T01:33:40.095Z,2.79
2023-03-08T01:36:42.675Z,2.90
2023-03-08T01:39:45.366Z,2.98
2023-03-08T01:42:47.880Z,2.96
2023-03-08T01:46:06.543Z,2.88
2023-03-08T01:49:30.674Z,2.85
2023-03-08T01:52:40.192Z,2.82
2023-03-08T01:55:43.052Z,2.87
2023-03-08T01:58:47.521Z,2.77
2023-03-08T02:01:53.835Z,2.77
2023-03-08T02:04:57.989Z,2.81
2023-03-08T02:08:02.241Z,2.76
2023-03-08T02:11:10.267Z,2.50
2023-03-08T02:14:12.819Z,2.45
2023-03-08T02:17:19.423Z,2.33
2023-03-08T02:20:32.531Z,2.40
2023-03-08T02:23:35.136Z,2.49
2023-03-08T02:26:38.218Z,2.56
2023-03-08T02:29:41.405Z,2.55
2023-03-08T02:32:44.097Z,2.57
2023-03-08T02:35:47.310Z,2.58
2023-03-08T02:38:49.959Z,2.55
2023-03-08T02:41:52.487Z,2.53
2023-03-08T02:44:54.955Z,2.51
2023-03-08T02:47:57.731Z,2.48
2023-03-08T02:51:00.434Z,2.47
2023-03-08T02:54:03.471Z,2.35
2023-03-08T02:57:06.392Z,2.41
2023-03-08T03:00:11.698Z,2.42
2023-03-08T03:03:14.230Z,2.41
2023-03-08T03:06:18.811Z,2.34
2023-03-08T03:09:24.177Z,2.33
2023-03-08T03:12:27.088Z,2.34
2023-03-08T03:15:29.652Z,2.31
2023-03-08T03:18:34.569Z,2.24
2023-03-08T03:21:39.202Z,2.30
2023-03-08T03:24:41.778Z,2.28
2023-03-08T03:27:44.527Z,2.20
2023-03-08T03:30:48.339Z,2.07
2023-03-08T03:33:52.517Z,2.10
2023-03-08T03:36:58.070Z,1.81
2023-03-08T03:40:01.118Z,1.86
2023-03-08T03:43:05.222Z,1.91
2023-03-08T03:46:10.566Z,1.70
2023-03-08T03:49:13.857Z,1.73
2023-03-08T03:52:19.214Z,1.63
2023-03-08T03:55:30.652Z,1.54
2023-03-08T03:58:34.206Z,1.70
2023-03-08T04:01:37.229Z,1.76
2023-03-08T04:04:51.340Z,1.74
2023-03-08T04:07:57.829Z,1.74
2023-03-08T04:11:05.573Z,1.73
2023-03-08T04:14:09.234Z,1.80
2023-03-08T04:17:11.812Z,1.89
2023-03-08T04:20:19.516Z,1.89
2023-03-08T04:23:29.340Z,1.90
2023-03-08T04:26:32.397Z,1.99
2023-03-08T04:29:34.991Z,1.98
2023-03-08T04:32:38.146Z,1.96
2023-03-08T04:35:41.671Z,1.97
2023-03-08T04:38:46.079Z,1.95
2023-03-08T04:41:48.784Z,1.99
2023-03-08T04:45:11.729Z,1.93
2023-03-08T04:48:15.624Z,2.01
2023-03-08T04:51:19.605Z,2.07
2023-03-08T04:54:23.180Z,2.05
2023-03-08T04:57:32.809Z,2.00
2023-03-08T05:00:36.713Z,1.99
2023-03-08T05:03:40.343Z,1.92
2023-03-08T05:06:43.627Z,1.78
2023-03-08T05:09:51.142Z,1.78
2023-03-08T05:12:53.761Z,1.78
2023-03-08T05:15:57.709Z,1.53
2023-03-08T05:19:00.734Z,1.43
2023-03-08T05:22:09.090Z,1.38
2023-03-08T05:25:17.970Z,1.35
2023-03-08T05:28:21.626Z,1.50
2023-03-08T05:31:24.417Z,1.67
2023-03-08T05:34:29.974Z,1.75
2023-03-08T05:37:33.878Z,1.73
2023-03-08T05:40:39.230Z,1.77
2023-03-08T05:43:43.124Z,1.86
2023-03-08T05:46:50.354Z,1.81
2023-03-08T05:49:53.210Z,1.88
2023-03-08T05:52:57.817Z,2.00
2023-03-08T05:56:10.102Z,1.95
2023-03-08T05:59:18.357Z,1.96
2023-03-08T06:02:22.219Z,1.95
2023-03-08T06:05:28.676Z,2.07
2023-03-08T06:08:33.226Z,2.09
2023-03-08T06:11:37.734Z,2.11
2023-03-08T06:14:41.453Z,2.17
2023-03-08T06:17:44.861Z,2.23
2023-03-08T06:20:58.187Z,2.20
2023-03-08T06:24:01.171Z,2.34
2023-03-08T06:27:04.760Z,2.44
2023-03-08T06:30:08.054Z,2.43
2023-03-08T06:33:11.939Z,2.41
2023-03-08T06:36:17.712Z,2.44
2023-03-08T06:39:21.594Z,2.43
2023-03-08T06:42:39.806Z,2.47
2023-03-08T06:45:43.624Z,2.63
2023-03-08T06:48:47.590Z,2.75
2023-03-08T06:51:51.572Z,2.66
2023-03-08T06:54:54.558Z,2.62
2023-03-08T06:57:58.547Z,2.60
2023-03-08T07:01:01.390Z,2.55
2023-03-08T07:04:04.684Z,2.85
2023-03-08T07:07:08.109Z,3.10
2023-03-08T07:10:14.924Z,3.07
2023-03-08T07:13:17.759Z,3.32
2023-03-08T07:16:20.515Z,3.55
2023-03-08T07:19:23.062Z,3.49
2023-03-08T07:22:25.618Z,3.70
2023-03-08T07:25:28.794Z,3.68
2023-03-08T07:28:32.275Z,3.72
2023-03-08T07:31:36.546Z,3.74
2023-03-08T07:34:39.250Z,3.75
2023-03-08T07:37:44.981Z,3.77
2023-03-08T07:40:55.499Z,3.77
2023-03-08T07:43:58.363Z,3.78
2023-03-08T07:47:02.554Z,4.03
2023-03-08T07:50:08.165Z,4.29
2023-03-08T07:53:11.145Z,4.50
2023-03-08T07:56:13.811Z,4.78
2023-03-08T07:59:16.443Z,4.88
2023-03-08T08:02:19.069Z,4.97
2023-03-08T08:05:22.360Z,5.12
2023-03-08T08:08:25.159Z,5.45
2023-03-08T08:11:27.783Z,5.33
2023-03-08T08:14:30.469Z,5.04
2023-03-08T08:17:33.016Z,5.60
2023-03-08T08:20:35.748Z,5.61
2023-03-08T08:23:39.908Z,5.70
2023-03-08T08:26:42.682Z,5.75
2023-03-08T08:29:46.419Z,6.11
2023-03-08T08:32:49.288Z,6.27
2023-03-08T08:35:52.011Z,6.16
2023-03-08T08:38:54.713Z,6.39
2023-03-08T08:41:57.323Z,6.62
2023-03-08T08:44:59.980Z,6.68
2023-03-08T08:48:02.630Z,7.23
2023-03-08T08:51:06.757Z,7.47
2023-03-08T08:54:09.630Z,7.10
2023-03-08T08:57:12.562Z,6.74
2023-03-08T09:00:16.084Z,7.27
2023-03-08T09:03:18.696Z,7.38
2023-03-08T09:06:22.686Z,7.63
2023-03-08T09:09:27.076Z,7.64
2023-03-08T09:12:30.252Z,7.54
2023-03-08T09:15:32.986Z,7.46
2023-03-08T09:18:35.608Z,7.32
2023-03-08T09:21:38.565Z,7.57
2023-03-08T09:24:41.222Z,8.02
2023-03-08T09:27:43.730Z,8.11
2023-03-08T09:30:46.312Z,8.35
2023-03-08T09:33:52.302Z,8.60
2023-03-08T09:36:55.072Z,8.94
2023-03-08T09:39:58.398Z,8.82
2023-03-08T09:43:04.993Z,8.93
2023-03-08T09:46:13.356Z,8.84
2023-03-08T09:49:36.757Z,8.78
2023-03-08T09:53:16.044Z,8.59
2023-03-08T09:56:36.862Z,8.41
2023-03-08T09:59:49.164Z,8.89
2023-03-08T10:03:19.645Z,8.90
2023-03-08T10:06:24.827Z,9.05
2023-03-08T10:09:42.058Z,9.26
2023-03-08T10:13:20.129Z,9.35
2023-03-08T10:16:34.563Z,8.93
2023-03-08T10:19:46.779Z,9.11
2023-03-08T10:22:57.000Z,9.48
2023-03-08T10:26:00.691Z,9.64
2023-03-08T10:29:03.746Z,9.75
2023-03-08T10:32:07.482Z,9.53
2023-03-08T10:35:10.090Z,9.26
2023-03-08T10:38:17.188Z,9.53
2023-03-08T10:41:19.758Z,9.57
2023-03-08T10:44:37.152Z,9.00
2023-03-08T10:47:39.679Z,8.97
2023-03-08T10:50:42.284Z,9.13
2023-03-08T10:54:03.438Z,9.49
2023-03-08T10:57:06.122Z,9.52
2023-03-08T11:00:21.111Z,9.20
2023-03-08T11:03:25.467Z,9.83
2023-03-08T11:06:28.229Z,9.40
2023-03-08T11:09:33.042Z,9.68
2023-03-08T11:12:35.753Z,9.70
2023-03-08T11:15:40.401Z,9.78
2023-03-08T11:19:01.333Z,9.89
2023-03-08T11:22:22.641Z,9.67
2023-03-08T11:25:47.141Z,9.83
2023-03-08T11:29:36.812Z,10.29
2023-03-08T11:32:59.125Z,10.45
2023-03-08T11:36:17.059Z,10.55
2023-03-08T11:39:37.965Z,9.86
2023-03-08T11:42:51.939Z,9.78
2023-03-08T11:46:17.756Z,9.60
2023-03-08T11:49:29.460Z,9.84
2023-03-08T11:52:47.202Z,9.92
2023-03-08T11:56:05.164Z,9.77
2023-03-08T11:59:20.324Z,10.01
2023-03-08T12:02:31.378Z,10.08
2023-03-08T12:05:36.368Z,10.43
2023-03-08T12:08:54.518Z,10.25
2023-03-08T12:12:21.260Z,10.61
2023-03-08T12:15:51.422Z,10.56
2023-03-08T12:19:15.802Z,10.08
2023-03-08T12:22:39.283Z,10.06
2023-03-08T12:25:43.623Z,9.90
2023-03-08T12:28:54.286Z,9.70
2023-03-08T12:31:57.409Z,9.60
2023-03-08T12:35:21.912Z,9.46
2023-03-08T12:38:28.800Z,9.39
2023-03-08T12:41:32.665Z,9.20
2023-03-08T12:44:35.289Z,9.47
2023-03-08T12:47:38.059Z,9.30
2023-03-08T12:50:43.420Z,9.31
2023-03-08T12:53:51.965Z,9.25
2023-03-08T12:56:55.233Z,9.04
2023-03-08T13:00:06.947Z,8.89
2023-03-08T13:03:12.566Z,8.80
2023-03-08T13:06:57.009Z,9.12
2023-03-08T13:10:32.416Z,9.13
2023-03-08T13:13:50.388Z,9.27
2023-03-08T13:16:53.276Z,9.11
2023-03-08T13:19:58.244Z,9.31
2023-03-08T13:23:11.815Z,9.14
2023-03-08T13:26:37.667Z,9.23
2023-03-08T13:29:50.818Z,9.11
2023-03-08T13:32:54.088Z,9.07
2023-03-08T13:36:06.949Z,8.95
2023-03-08T13:39:30.522Z,8.92
2023-03-08T13:42:33.369Z,8.79
2023-03-08T13:45:36.584Z,8.68
2023-03-08T13:48:39.697Z,8.65
2023-03-08T13:51:43.680Z,8.55
2023-03-08T13:54:55.023Z,8.72
2023-03-08T13:57:57.772Z,8.68
2023-03-08T14:01:05.144Z,8.78
2023-03-08T14:04:14.066Z,8.58
2023-03-08T14:07:25.569Z,8.54
2023-03-08T14:10:47.393Z,8.74
2023-03-08T14:13:53.305Z,8.57
2023-03-08T14:16:56.158Z,8.55
2023-03-08T14:20:07.144Z,8.50
2023-03-08T14:23:23.634Z,8.36
2023-03-08T14:26:36.845Z,8.20
2023-03-08T14:29:39.599Z,8.18
2023-03-08T14:32:57.063Z,8.20
2023-03-08T14:36:00.489Z,8.13
2023-03-08T14:39:04.000Z,8.19
2023-03-08T14:42:16.171Z,8.20
2023-03-08T14:45:37.304Z,8.19
2023-03-08T14:48:40.174Z,8.16
2023-03-08T14:51:43.603Z,8.33
2023-03-08T14:54:46.418Z,8.10
2023-03-08T14:57:50.851Z,8.15
2023-03-08T15:00:55.653Z,8.09
2023-03-08T15:03:58.913Z,8.24
2023-03-08T15:07:01.734Z,8.27
2023-03-08T15:10:06.792Z,8.21
2023-03-08T15:13:16.158Z,8.27
2023-03-08T15:16:19.128Z,8.03
2023-03-08T15:19:22.180Z,8.21
2023-03-08T15:22:25.291Z,8.16
2023-03-08T15:25:34.801Z,8.07
2023-03-08T15:28:37.529Z,7.96
2023-03-08T15:31:40.412Z,8.00
2023-03-08T15:34:43.219Z,7.90
2023-03-08T15:37:46.839Z,8.03
2023-03-08T15:40:49.819Z,8.04
2023-03-08T15:43:54.886Z,8.07
2023-03-08T15:46:57.583Z,7.96
2023-03-08T15:50:02.127Z,7.94
2023-03-08T15:53:05.080Z,7.93
2023-03-08T15:56:08.133Z,7.95
2023-03-08T15:59:11.004Z,7.86
2023-03-08T16:02:16.043Z,7.82
2023-03-08T16:05:20.232Z,7.85
2023-03-08T16:08:26.293Z,7.90
2023-03-08T16:11:29.238Z,7.84
2023-03-08T16:14:31.876Z,7.87
2023-03-08T16:17:34.806Z,7.91
2023-03-08T16:20:40.175Z,7.87
2023-03-08T16:23:43.392Z,7.93
2023-03-08T16:26:46.181Z,7.86
2023-03-08T16:29:52.917Z,7.67
2023-03-08T16:32:55.688Z,7.77
2023-03-08T16:36:01.310Z,7.73
2023-03-08T16:39:07.955Z,7.72
2023-03-08T16:42:13.081Z,7.66
2023-03-08T16:45:16.947Z,7.69
2023-03-08T16:48:19.933Z,7.63
2023-03-08T16:51:25.031Z,7.64
2023-03-08T16:54:27.802Z,7.59
2023-03-08T16:57:30.822Z,7.62
2023-03-08T17:00:34.304Z,7.57
2023-03-08T17:03:38.561Z,7.54
2023-03-08T17:06:43.811Z,7.60
2023-03-08T17:09:46.758Z,7.60
2023-03-08T17:12:49.741Z,7.61
2023-03-08T17:15:52.575Z,7.60
2023-03-08T17:18:56.484Z,7.64
2023-03-08T17:21:59.493Z,7.60
2023-03-08T17:25:02.839Z,7.53
2023-03-08T17:28:06.364Z,7.61
2023-03-08T17:31:11.886Z,7.60
2023-03-08T17:34:15.199Z,7.59
2023-03-08T17:37:19.382Z,7.60
2023-03-08T17:40:22.943Z,7.47
2023-03-08T17:43:26.927Z,7.55
2023-03-08T17:46:30.852Z,7.56
2023-03-08T17:49:35.159Z,7.55
2023-03-08T17:52:39.200Z,7.56
2023-03-08T17:55:45.804Z,7.46
2023-03-08T17:58:50.273Z,7.53
2023-03-08T18:01:54.053Z,7.48
2023-03-08T18:04:56.978Z,7.40
2023-03-08T18:07:59.961Z,7.26
2023-03-08T18:11:03.226Z,7.25
2023-03-08T18:14:07.633Z,7.16
2023-03-08T18:17:11.333Z,7.10
2023-03-08T18:20:15.079Z,6.92
2023-03-08T18:23:18.306Z,6.75
2023-03-08T18:26:21.223Z,6.59
2023-03-08T18:29:24.701Z,6.54
2023-03-08T18:32:29.100Z,6.46
2023-03-08T18:35:32.566Z,6.47
2023-03-08T18:38:36.053Z,6.57
2023-03-08T18:41:39.923Z,6.65
2023-03-08T18:44:43.323Z,6.63
2023-03-08T18:47:50.127Z,6.76
2023-03-08T18:50:54.868Z,6.83
2023-03-08T18:53:59.062Z,6.81
2023-03-08T18:57:02.339Z,6.75
2023-03-08T19:00:09.870Z,6.84
2023-03-08T19:03:13.844Z,6.86
2023-03-08T19:06:17.308Z,6.82
2023-03-08T19:09:22.772Z,6.82
2023-03-08T19:12:26.018Z,6.85
2023-03-08T19:15:38.295Z,6.93
2023-03-08T19:18:41.737Z,6.87
2023-03-08T19:21:49.197Z,6.86
2023-03-08T19:24:52.833Z,6.83
2023-03-08T19:27:56.122Z,6.80
2023-03-08T19:30:59.082Z,6.74
2023-03-08T19:34:03.129Z,6.68
2023-03-08T19:37:07.037Z,6.75
2023-03-08T19:40:10.666Z,6.60
2023-03-08T19:43:13.450Z,6.64
2023-03-08T19:46:18.218Z,6.53
2023-03-08T19:49:23.420Z,6.47
2023-03-08T19:52:26.362Z,6.49
2023-03-08T19:55:29.406Z,6.58
2023-03-08T19:58:32.188Z,6.56
2023-03-08T20:01:35.406Z,6.56
2023-03-08T20:04:38.360Z,6.56
2023-03-08T20:07:41.321Z,6.53
2023-03-08T20:10:44.086Z,6.61
2023-03-08T20:13:47.365Z,6.54
2023-03-08T20:16:51.644Z,6.47
2023-03-08T20:19:55.299Z,6.43
2023-03-08T20:22:58.352Z,6.48
2023-03-08T20:26:01.620Z,6.49
2023-03-08T20:29:05.779Z,6.40
2023-03-08T20:32:08.689Z,6.42
2023-03-08T20:35:15.283Z,6.39
2023-03-08T20:38:18.115Z,6.49
2023-03-08T20:41:22.945Z,6.40
2023-03-08T20:44:26.063Z,6.42
2023-03-08T20:47:28.843Z,6.36
2023-03-08T20:50:31.610Z,6.35
2023-03-08T20:53:35.855Z,6.41
2023-03-08T20:56:38.903Z,6.41
2023-03-08T20:59:42.125Z,6.41
2023-03-08T21:02:45.760Z,6.45
2023-03-08T21:05:48.857Z,6.33
2023-03-08T21:08:51.811Z,6.38
2023-03-08T21:11:54.348Z,6.36
2023-03-08T21:14:59.915Z,6.39
2023-03-08T21:18:03.216Z,6.37
2023-03-08T21:21:06.305Z,6.36
2023-03-08T21:24:15.062Z,6.33
2023-03-08T21:27:18.228Z,6.30
2023-03-08T21:30:21.860Z,6.30
2023-03-08T21:33:24.451Z,6.31
2023-03-08T21:36:27.216Z,6.19
2023-03-08T21:39:30.294Z,6.23
2023-03-08T21:42:33.835Z,6.23
2023-03-08T21:45:41.794Z,6.16
2023-03-08T21:48:44.825Z,6.24
2023-03-08T21:51:48.160Z,6.24
2023-03-08T21:54:50.974Z,6.16
2023-03-08T21:57:53.721Z,6.25
2023-03-08T22:00:56.540Z,6.26
2023-03-08T22:04:00.901Z,6.19
2023-03-08T22:07:03.797Z,6.14
2023-03-08T22:10:07.435Z,6.15
2023-03-08T22:13:10.138Z,6.09
2023-03-08T22:16:12.882Z,6.15
2023-03-08T22:19:15.595Z,6.16
2023-03-08T22:22:18.821Z,6.21
2023-03-08T22:25:21.591Z,6.10
2023-03-08T22:28:24.334Z,6.12
2023-03-08T22:31:28.727Z,6.22
2023-03-08T22:34:31.843Z,6.28
2023-03-08T22:37:34.879Z,6.22
2023-03-08T22:40:41.071Z,6.21
2023-03-08T22:43:44.769Z,6.19
2023-03-08T22:46:48.301Z,6.24
2023-03-08T22:49:51.545Z,6.23
2023-03-08T22:52:54.464Z,6.16
2023-03-08T22:55:57.230Z,6.16
2023-03-08T22:59:01.367Z,6.20
2023-03-08T23:02:06.157Z,6.15
2023-03-08T23:05:12.474Z,6.16
2023-03-08T23:08:15.064Z,6.15
2023-03-08T23:11:17.978Z,6.14
2023-03-08T23:14:20.623Z,6.14
2023-03-08T23:17:23.189Z,6.20
2023-03-08T23:20:26.032Z,6.17
2023-03-08T23:23:28.601Z,6.14
2023-03-08T23:26:32.919Z,6.10
2023-03-08T23:29:36.267Z,6.07
2023-03-08T23:32:38.877Z,6.08
2023-03-08T23:35:41.690Z,6.13
2023-03-08T23:38:44.625Z,6.16
2023-03-08T23:41:47.150Z,6.14
2023-03-08T23:44:49.776Z,6.09
2023-03-08T23:47:52.297Z,6.13
2023-03-08T23:50:54.856Z,6.14
2023-03-08T23:53:59.836Z,6.20
2023-03-08T23:57:02.410Z,6.20
